Time;durP1;ratioP1;P1;durP2;ratioP2;P2;SDS_P1;SDS_P2;PMS_P1;PMS_P2;Temp;Humidity;BMP_temperature;BMP_pressure;BME280_temperature;BME280_humidity;BME280_pressure;Samples;Min_cycle;Max_cycle;Signal;HPM_P1;HPM_P2
2021/05/27 00:00:30;;;;;;;7.25;5.85;;;;;;;24.83;53.94;94813.13;4926676;29;20469;-67
2021/05/27 00:02:56;;;;;;;7.72;6.07;;;;;;;24.83;53.49;94821.31;4908616;29;20080;-67
2021/05/27 00:05:22;;;;;;;8.80;5.95;;;;;;;24.82;53.55;94818.38;4911724;29;20043;-67
2021/05/27 00:07:47;;;;;;;7.40;6.15;;;;;;;24.80;53.66;94809.97;4926228;29;20036;-66
2021/05/27 00:10:15;;;;;;;9.07;5.97;;;;;;;24.78;53.50;94812.50;4912118;29;20489;-67
2021/05/27 00:12:40;;;;;;;7.38;5.90;;;;;;;24.77;53.27;94816.47;4911105;29;20071;-66
2021/05/27 00:15:06;;;;;;;7.47;6.05;;;;;;;24.77;53.99;94811.00;4901835;29;20540;-66
2021/05/27 00:17:31;;;;;;;6.88;6.18;;;;;;;24.75;53.61;94814.25;4892834;29;20032;-67
2021/05/27 00:19:57;;;;;;;8.38;6.35;;;;;;;24.75;53.47;94808.06;4892929;29;20036;-67
2021/05/27 00:22:23;;;;;;;7.25;6.50;;;;;;;24.71;53.63;94807.63;4892852;29;20032;-66
2021/05/27 00:24:48;;;;;;;8.90;6.65;;;;;;;24.62;54.13;94788.94;4876398;29;20032;-67
2021/05/27 00:27:14;;;;;;;8.02;6.50;;;;;;;24.71;53.97;94807.63;4892726;29;20033;-68
2021/05/27 00:29:40;;;;;;;8.80;6.10;;;;;;;24.56;54.47;94796.50;4892870;29;20564;-67
2021/05/27 00:32:06;;;;;;;8.77;6.85;;;;;;;24.69;53.83;94810.91;4891349;29;20032;-66
2021/05/27 00:34:31;;;;;;;8.52;6.60;;;;;;;24.68;53.80;94803.22;4895531;29;20415;-67
2021/05/27 00:36:57;;;;;;;8.52;6.45;;;;;;;24.67;53.85;94801.78;4911343;29;20028;-66
2021/05/27 00:39:22;;;;;;;8.43;6.80;;;;;;;24.66;53.85;94811.22;4911608;29;20024;-66
2021/05/27 00:41:48;;;;;;;7.88;6.38;;;;;;;24.66;54.10;94811.22;4926058;29;20094;-67
2021/05/27 00:44:20;;;;;;;8.30;7.00;;;;;;;24.64;54.28;94819.94;4925864;29;20028;-67
2021/05/27 00:46:45;;;;;;;9.00;6.82;;;;;;;24.64;54.06;94819.19;4925480;29;20039;-67
2021/05/27 00:49:11;;;;;;;9.27;6.80;;;;;;;24.62;54.57;94827.16;4912975;29;20055;-67
2021/05/27 00:51:36;;;;;;;8.38;6.10;;;;;;;24.61;54.66;94825.69;4915094;29;20028;-65
2021/05/27 00:54:02;;;;;;;7.93;6.82;;;;;;;24.55;53.72;94816.88;4915180;29;20028;-66
2021/05/27 00:56:28;;;;;;;10.63;6.88;;;;;;;24.59;53.77;94833.69;4914769;29;20039;-66
2021/05/27 00:58:53;;;;;;;10.25;7.10;;;;;;;24.58;53.42;94829.47;4914545;29;20083;-67
2021/05/27 01:01:19;;;;;;;8.25;7.05;;;;;;;24.56;53.67;94823.81;4914951;29;20024;-66
2021/05/27 01:03:44;;;;;;;7.68;6.88;;;;;;;24.54;54.23;94818.13;4924712;29;20052;-69
2021/05/27 01:06:10;;;;;;;9.43;7.10;;;;;;;24.55;53.86;94812.13;4916638;29;20035;-68
2021/05/27 01:08:35;;;;;;;9.10;7.10;;;;;;;24.48;54.05;94801.09;4933466;29;20035;-67
2021/05/27 01:11:01;;;;;;;8.18;7.28;;;;;;;24.56;54.23;94801.97;4933543;29;20067;-68
2021/05/27 01:13:26;;;;;;;9.20;7.55;;;;;;;24.37;54.46;94801.28;4933704;29;20032;-67
2021/05/27 01:15:52;;;;;;;7.93;6.80;;;;;;;24.52;53.70;94812.44;4916261;29;20035;-67
2021/05/27 01:18:19;;;;;;;9.48;7.20;;;;;;;24.41;53.85;94796.25;4916546;29;20525;-67
2021/05/27 01:20:55;;;;;;;8.23;7.25;;;;;;;24.49;54.34;94797.09;4933226;29;20571;-67
2021/05/27 01:23:22;;;;;;;8.30;7.47;;;;;;;24.49;54.40;94797.09;4933330;29;20102;-66
2021/05/27 01:25:50;;;;;;;8.00;6.78;;;;;;;24.29;54.09;94772.34;4933263;29;20134;-66
2021/05/27 01:28:15;;;;;;;9.18;7.10;;;;;;;24.48;53.96;94779.25;4947372;29;20032;-67
2021/05/27 01:30:41;;;;;;;8.80;6.85;;;;;;;24.48;54.59;94780.00;4932908;29;20032;-66
2021/05/27 01:33:09;;;;;;;11.98;7.97;;;;;;;24.48;54.56;94773.78;4932928;29;20066;-67
2021/05/27 01:35:35;;;;;;;9.77;7.20;;;;;;;24.43;54.34;94766.44;4932991;29;20400;-67
2021/05/27 01:38:02;;;;;;;10.38;7.43;;;;;;;24.37;54.25;94773.97;4932750;29;20035;-66
2021/05/27 01:40:27;;;;;;;12.23;8.02;;;;;;;24.45;54.73;94769.38;4947204;29;20027;-66
2021/05/27 01:42:56;;;;;;;8.85;7.45;;;;;;;24.45;54.46;94777.56;4932954;29;20031;-66
2021/05/27 01:45:21;;;;;;;8.75;7.50;;;;;;;24.44;54.71;94773.38;4932743;29;20447;-67
2021/05/27 01:47:47;;;;;;;10.40;7.40;;;;;;;24.43;54.35;94769.16;4932839;29;20031;-66
2021/05/27 01:50:20;;;;;;;9.57;7.82;;;;;;;24.40;54.37;94768.22;4932817;29;20042;-66
2021/05/27 01:52:46;;;;;;;9.18;7.50;;;;;;;24.40;54.10;94767.47;4931540;29;20034;-67
2021/05/27 01:55:11;;;;;;;10.65;7.50;;;;;;;24.40;54.80;94764.75;4932765;29;20035;-67
2021/05/27 01:57:37;;;;;;;8.65;7.50;;;;;;;24.39;54.12;94766.75;4931847;29;20028;-67
2021/05/27 02:00:04;;;;;;;8.55;7.70;;;;;;;24.38;53.88;94775.47;4931599;29;20020;-67
2021/05/27 02:02:30;;;;;;;8.90;7.05;;;;;;;24.29;54.00;94762.19;4931893;29;20036;-67
2021/05/27 02:04:55;;;;;;;9.75;7.65;;;;;;;24.37;54.32;94771.25;4915353;29;20023;-68
2021/05/27 02:07:21;;;;;;;9.30;7.60;;;;;;;24.36;54.12;94767.03;4932433;29;20042;-67
2021/05/27 02:09:46;;;;;;;13.32;8.35;;;;;;;24.33;54.32;94779.00;4928802;29;20035;-66
2021/05/27 02:12:11;;;;;;;11.27;8.82;;;;;;;24.33;54.42;94784.47;4920165;29;20028;-66
2021/05/27 02:14:37;;;;;;;11.73;8.07;;;;;;;24.33;54.44;94789.19;4913277;29;20032;-66
2021/05/27 02:17:02;;;;;;;11.30;8.60;;;;;;;24.34;54.68;94791.41;4913261;29;20428;-66
2021/05/27 02:19:28;;;;;;;12.10;8.90;;;;;;;24.32;54.41;94788.44;4913386;29;20027;-66
2021/05/27 02:21:53;;;;;;;13.95;9.00;;;;;;;24.33;54.27;94784.47;4913120;29;20095;-66
2021/05/27 02:24:19;;;;;;;10.50;8.25;;;;;;;24.32;54.28;94787.69;4916933;29;20056;-65
2021/05/27 02:26:44;;;;;;;12.10;8.15;;;;;;;24.22;54.21;94784.63;4932356;29;20046;-67
2021/05/27 02:29:10;;;;;;;12.18;7.68;;;;;;;24.27;54.27;94791.97;4932214;29;20032;-66
2021/05/27 02:31:36;;;;;;;10.25;7.70;;;;;;;24.27;54.44;94786.50;4915043;29;20467;-67
2021/05/27 02:34:01;;;;;;;10.38;8.18;;;;;;;24.28;54.10;94782.53;4931829;29;20050;-67
2021/05/27 02:36:27;;;;;;;11.15;7.80;;;;;;;24.25;54.33;94783.56;4931969;29;20114;-67
2021/05/27 02:38:53;;;;;;;12.23;8.90;;;;;;;24.22;54.51;94773.69;4929886;29;20031;-67
2021/05/27 02:41:18;;;;;;;9.68;7.90;;;;;;;24.22;55.02;94784.63;4911410;29;20087;-68
2021/05/27 02:43:44;;;;;;;11.55;8.38;;;;;;;24.23;54.92;94780.63;4901489;29;20119;-69
2021/05/27 02:46:09;;;;;;;11.27;7.97;;;;;;;24.20;55.00;94778.94;4906570;29;20032;-69
2021/05/27 02:48:35;;;;;;;10.63;7.53;;;;;;;24.16;54.78;94775.78;4917904;29;20028;-70
2021/05/27 02:51:01;;;;;;;10.30;7.50;;;;;;;24.16;55.45;94781.22;4931161;29;20039;-68
2021/05/27 02:53:26;;;;;;;11.35;7.65;;;;;;;24.12;55.26;94769.16;4929718;29;20032;-70
2021/05/27 02:55:52;;;;;;;12.75;8.07;;;;;;;24.16;54.98;94781.22;4924069;29;20035;-69
2021/05/27 02:58:18;;;;;;;12.23;8.40;;;;;;;24.17;55.06;94777.25;4926015;29;20488;-69
2021/05/27 03:00:43;;;;;;;10.70;8.27;;;;;;;24.09;55.33;94759.28;4929240;29;20027;-69
2021/05/27 03:03:09;;;;;;;11.77;7.95;;;;;;;24.26;54.51;94776.88;4913034;29;20503;-69
2021/05/27 03:05:34;;;;;;;10.20;7.07;;;;;;;24.27;54.97;94775.59;4929903;29;20031;-69
2021/05/27 03:07:59;;;;;;;9.98;7.95;;;;;;;24.37;54.11;94790.34;4930393;29;20024;-70
2021/05/27 03:10:25;;;;;;;9.70;7.82;;;;;;;24.40;54.04;94783.84;4929380;29;20027;-69
2021/05/27 03:12:51;;;;;;;10.05;7.60;;;;;;;24.33;53.85;94768.09;4929974;29;20031;-69
2021/05/27 03:15:16;;;;;;;9.35;7.50;;;;;;;24.51;53.94;94778.19;4931618;29;20027;-69
2021/05/27 03:17:42;;;;;;;9.40;7.10;;;;;;;24.51;53.51;94772.75;4929406;29;20419;-69
2021/05/27 03:20:08;;;;;;;10.32;7.72;;;;;;;24.64;53.61;94786.44;4924281;29;20024;-70
2021/05/27 03:22:34;;;;;;;9.60;7.20;;;;;;;24.69;53.47;94789.03;4930435;29;20020;-69
2021/05/27 03:24:59;;;;;;;9.45;7.40;;;;;;;24.76;53.59;94793.16;4872579;29;20063;-69
2021/05/27 03:27:25;;;;;;;10.18;7.45;;;;;;;24.84;52.77;94792.75;4857142;29;20095;-70
2021/05/27 03:29:50;;;;;;;9.88;7.15;;;;;;;24.88;52.94;94795.91;4915772;29;20020;-69
2021/05/27 03:32:16;;;;;;;9.00;6.93;;;;;;;24.86;52.62;94792.25;4916300;29;20032;-69
2021/05/27 03:34:41;;;;;;;8.02;7.10;;;;;;;24.99;52.63;94812.13;4926052;29;20031;-68
2021/05/27 03:37:07;;;;;;;8.75;6.60;;;;;;;25.02;51.85;94805.63;4926260;29;20039;-69
2021/05/27 03:39:32;;;;;;;8.13;6.65;;;;;;;25.09;52.04;94804.25;4929460;29;20020;-68
2021/05/27 03:42:00;;;;;;;13.88;6.93;;;;;;;25.14;51.87;94809.63;4924586;29;20778;-68
2021/05/27 03:44:26;;;;;;;10.32;7.30;;;;;;;25.20;51.54;94815.72;4909317;29;20692;-68
2021/05/27 03:46:51;;;;;;;9.55;6.63;;;;;;;25.25;52.15;94800.47;4926994;29;20035;-67
2021/05/27 03:49:17;;;;;;;9.57;6.60;;;;;;;25.30;51.57;94797.63;4930019;29;20555;-68
2021/05/27 03:51:42;;;;;;;8.68;6.95;;;;;;;25.31;51.00;94810.03;4924232;29;20023;-67
2021/05/27 03:54:08;;;;;;;9.45;6.28;;;;;;;25.37;50.97;94803.19;4929984;29;20115;-67
2021/05/27 03:56:33;;;;;;;7.43;6.50;;;;;;;25.42;51.02;94798.88;4917969;29;20493;-70
2021/05/27 04:01:43;;;;;;;8.02;6.10;;;;;;;25.52;51.09;94797.19;4915397;29;20099;-70
2021/05/27 04:09:30;;;;;;;7.53;5.65;;;;;;;25.73;49.99;94806.22;4928577;29;20420;-66
2021/05/27 04:12:45;;;;;;;8.63;5.63;;;;;;;25.72;49.77;94815.69;4922418;29;20023;-69
2021/05/27 04:14:41;;;;;;;9.10;5.93;;;;;;;25.64;49.90;94787.50;4902447;29;20038;-70
2021/05/27 04:17:06;;;;;;;6.93;5.72;;;;;;;25.61;49.78;94794.00;4906335;29;20027;-70
2021/05/27 04:19:31;;;;;;;8.45;6.18;;;;;;;25.77;49.64;94806.63;4912519;29;20099;-69
2021/05/27 04:21:57;;;;;;;7.03;6.00;;;;;;;25.79;50.45;94805.56;4926371;29;20040;-69
2021/05/27 04:24:23;;;;;;;7.95;5.22;;;;;;;25.82;49.57;94815.44;4932828;29;20035;-69
2021/05/27 04:26:48;;;;;;;7.90;5.90;;;;;;;25.85;49.93;94825.31;4906422;29;20043;-70
2021/05/27 04:29:13;;;;;;;7.70;5.57;;;;;;;25.90;49.41;94816.28;4924808;29;20043;-71
2021/05/27 04:31:39;;;;;;;7.90;5.78;;;;;;;25.94;49.01;94816.66;4927270;29;20563;-70
2021/05/27 04:34:04;;;;;;;8.60;5.10;;;;;;;25.88;48.38;94807.84;4919858;29;20511;-69
2021/05/27 04:36:30;;;;;;;6.45;5.47;;;;;;;25.99;48.88;94818.56;4930642;29;20061;-70
2021/05/27 04:38:55;;;;;;;8.27;5.65;;;;;;;26.01;48.22;94815.31;4931122;29;20028;-69
2021/05/27 04:41:22;;;;;;;8.15;5.45;;;;;;;26.09;47.62;94816.84;4913823;29;20038;-70
2021/05/27 04:43:53;;;;;;;6.55;4.63;;;;;;;26.12;47.66;94815.78;4934064;29;20035;-70
2021/05/27 04:46:18;;;;;;;6.07;5.30;;;;;;;26.11;48.22;94819.78;4932968;29;20037;-70
2021/05/27 04:48:44;;;;;;;8.07;5.13;;;;;;;26.16;47.94;94815.44;4935204;29;20054;-69
2021/05/27 04:51:09;;;;;;;7.07;5.00;;;;;;;26.19;47.94;94815.13;4927116;29;20419;-71
2021/05/27 04:53:34;;;;;;;11.20;5.15;;;;;;;26.21;48.31;94823.53;4932244;29;20027;-72
2021/05/27 04:56:00;;;;;;;7.72;5.38;;;;;;;26.28;47.57;94828.38;4927159;29;20168;-69
2021/05/27 04:58:25;;;;;;;11.18;5.53;;;;;;;26.31;47.99;94827.31;4933219;29;20024;-67
2021/05/27 05:00:51;;;;;;;8.40;5.82;;;;;;;26.33;47.96;94830.97;4927977;29;20036;-68
2021/05/27 05:03:17;;;;;;;10.18;5.85;;;;;;;26.35;48.16;94827.72;4932690;29;20058;-67
2021/05/27 05:05:43;;;;;;;8.25;6.45;;;;;;;26.33;47.62;94809.06;4921232;29;20151;-68
2021/05/27 05:08:09;;;;;;;10.95;6.88;;;;;;;26.43;47.60;94823.06;4896860;29;20427;-68
2021/05/27 05:10:34;;;;;;;10.75;7.35;;;;;;;26.46;47.51;94817.25;4912559;29;20034;-70
2021/05/27 05:13:00;;;;;;;8.95;7.03;;;;;;;26.43;48.25;94812.09;4902849;29;20034;-70
2021/05/27 05:15:27;;;;;;;10.10;7.55;;;;;;;26.48;47.67;94811.22;4924000;29;20488;-68
2021/05/27 05:17:56;;;;;;;12.13;7.88;;;;;;;26.40;47.93;94813.16;4918675;29;20841;-70
2021/05/27 05:20:23;;;;;;;13.63;7.67;;;;;;;26.43;47.97;94812.09;4907450;29;20444;-72
2021/05/27 05:22:48;;;;;;;10.63;7.07;;;;;;;26.50;47.89;94801.22;4883314;29;20136;-73
2021/05/27 05:25:14;;;;;;;9.40;7.25;;;;;;;26.54;47.62;94812.56;4900129;29;20032;-68
2021/05/27 05:27:40;;;;;;;10.88;7.30;;;;;;;26.57;47.82;94811.47;4923613;29;20467;-68
2021/05/27 05:30:06;;;;;;;9.82;7.05;;;;;;;26.60;47.93;94815.91;4899076;29;20111;-70
2021/05/27 05:32:32;;;;;;;12.30;7.22;;;;;;;26.62;47.85;94823.59;4919171;29;20034;-67
2021/05/27 05:34:58;;;;;;;12.27;7.55;;;;;;;26.57;48.15;94822.44;4913770;29;20107;-70
2021/05/27 05:37:24;;;;;;;11.73;7.70;;;;;;;26.67;47.93;94814.50;4904402;29;20061;-69
2021/05/27 05:39:49;;;;;;;12.82;8.30;;;;;;;26.72;47.89;94816.38;4896814;29;20035;-69
2021/05/27 05:42:15;;;;;;;11.90;7.88;;;;;;;26.77;47.48;94825.19;4918664;29;20020;-70
2021/05/27 05:44:40;;;;;;;13.20;8.85;;;;;;;26.81;47.53;94820.09;4917320;29;20023;-71
2021/05/27 05:47:05;;;;;;;15.85;8.60;;;;;;;26.82;47.41;94821.56;4917366;29;20032;-71
2021/05/27 05:49:31;;;;;;;15.48;9.82;;;;;;;26.94;47.35;94822.78;4914761;29;20032;-69
2021/05/27 05:51:56;;;;;;;17.23;10.93;;;;;;;26.87;47.34;94812.47;4918701;29;20035;-71
2021/05/27 05:54:22;;;;;;;12.73;9.55;;;;;;;26.99;47.21;94819.16;4913635;29;20027;-70
2021/05/27 05:56:47;;;;;;;13.52;10.30;;;;;;;26.96;46.85;94814.75;4924995;29;20495;-67
2021/05/27 05:59:13;;;;;;;17.23;11.50;;;;;;;27.08;46.91;94826.91;4900893;29;20039;-69
2021/05/27 06:01:38;;;;;;;15.85;11.00;;;;;;;27.11;46.56;94822.34;4925964;29;20039;-69
2021/05/27 06:04:04;;;;;;;18.75;10.88;;;;;;;27.12;46.53;94827.28;4913588;29;20052;-71
2021/05/27 06:06:29;;;;;;;13.98;10.77;;;;;;;27.17;46.62;94818.19;4920994;29;20186;-67
2021/05/27 06:08:56;;;;;;;16.55;11.38;;;;;;;27.21;46.61;94813.09;4919305;29;20087;-69
2021/05/27 06:11:22;;;;;;;14.15;10.70;;;;;;;27.24;46.74;94812.03;4923725;29;20032;-68
2021/05/27 06:13:47;;;;;;;16.15;10.48;;;;;;;27.20;46.50;94814.34;4921889;29;20019;-68
2021/05/27 06:16:13;;;;;;;15.98;10.40;;;;;;;27.22;46.17;94814.56;4916523;29;20024;-69
2021/05/27 06:18:38;;;;;;;15.15;9.82;;;;;;;27.26;45.85;94820.44;4914467;29;20419;-68
2021/05/27 06:21:04;;;;;;;14.85;10.15;;;;;;;27.32;45.59;94812.78;4914982;29;20039;-67
2021/05/27 06:23:29;;;;;;;17.13;9.73;;;;;;;27.34;45.30;94804.78;4918324;29;20514;-67
2021/05/27 06:25:55;;;;;;;13.75;9.27;;;;;;;27.29;45.22;94814.63;4924297;29;20042;-66
2021/05/27 06:28:20;;;;;;;16.42;10.43;;;;;;;27.22;45.12;94803.59;4931230;29;20898;-68
2021/05/27 06:30:45;;;;;;;15.02;9.45;;;;;;;27.19;44.99;94809.41;4925616;29;20024;-68
2021/05/27 06:33:11;;;;;;;12.70;9.68;;;;;;;27.09;45.12;94800.22;4915946;29;20422;-68
2021/05/27 06:35:36;;;;;;;15.48;10.60;;;;;;;27.11;45.53;94803.88;4899259;29;20095;-68
2021/05/27 06:38:03;;;;;;;13.52;10.38;;;;;;;27.05;45.76;94800.56;4926399;29;20083;-68
2021/05/27 06:40:28;;;;;;;13.77;10.50;;;;;;;26.97;46.23;94799.78;4920025;29;20334;-68
2021/05/27 06:42:54;;;;;;;16.02;10.77;;;;;;;26.89;45.98;94793.53;4928197;29;20062;-68
2021/05/27 06:45:19;;;;;;;17.70;10.95;;;;;;;26.77;46.13;94797.78;4926937;29;20043;-67
2021/05/27 06:47:45;;;;;;;15.40;10.43;;;;;;;26.75;46.53;94798.84;4929401;29;20062;-68
2021/05/27 06:50:11;;;;;;;14.43;10.73;;;;;;;26.67;46.08;94798.06;4928657;29;20038;-68
2021/05/27 06:52:36;;;;;;;14.43;11.15;;;;;;;26.67;46.31;94792.59;4930760;29;20440;-68
2021/05/27 06:55:05;;;;;;;18.02;12.07;;;;;;;26.55;45.94;94791.41;4928953;29;20663;-69
2021/05/27 06:57:31;;;;;;;17.00;11.13;;;;;;;26.42;46.37;94788.72;4928991;29;20032;-67
2021/05/27 06:59:56;;;;;;;16.65;11.18;;;;;;;26.49;46.08;94788.06;4927495;29;20283;-67
2021/05/27 07:02:22;;;;;;;14.57;11.65;;;;;;;26.40;46.27;94780.31;4905313;29;20039;-67
2021/05/27 07:04:47;;;;;;;16.05;10.73;;;;;;;26.41;46.52;94776.28;4920330;29;20538;-68
2021/05/27 07:07:13;;;;;;;15.70;11.02;;;;;;;26.32;46.70;94784.97;4931387;29;20496;-68
2021/05/27 07:09:39;;;;;;;14.18;10.57;;;;;;;26.26;47.00;94787.06;4930010;29;20042;-67
2021/05/27 07:12:07;;;;;;;15.98;11.40;;;;;;;26.21;47.09;94790.69;4921023;29;20031;-67
2021/05/27 07:14:33;;;;;;;12.90;9.57;;;;;;;26.12;46.40;94766.50;4921979;29;20115;-68
2021/05/27 07:17:04;;;;;;;15.25;9.23;;;;;;;26.13;46.41;94787.16;4921777;29;20464;-67
2021/05/27 07:19:30;;;;;;;14.00;9.25;;;;;;;26.05;46.72;94772.66;4896099;29;20028;-67
2021/05/27 07:21:55;;;;;;;11.45;9.13;;;;;;;26.13;46.79;94789.88;4918923;29;20028;-69
2021/05/27 07:24:21;;;;;;;11.35;8.80;;;;;;;26.11;46.89;94786.94;4948752;29;20046;-69
2021/05/27 07:26:46;;;;;;;12.25;8.82;;;;;;;26.07;46.54;94781.06;4927991;29;20034;-67
2021/05/27 07:29:12;;;;;;;14.23;9.00;;;;;;;26.08;46.47;94787.25;4923430;29;20114;-67
2021/05/27 07:31:37;;;;;;;12.02;8.20;;;;;;;26.06;46.83;94779.59;4926459;29;20096;-67
2021/05/27 07:34:05;;;;;;;11.88;8.27;;;;;;;26.02;46.39;94779.19;4928301;29;20031;-67
2021/05/27 07:36:30;;;;;;;13.00;8.63;;;;;;;25.98;46.43;94767.84;4931012;29;20038;-68
2021/05/27 07:38:56;;;;;;;11.43;8.93;;;;;;;25.95;46.56;94768.91;4923109;29;20126;-67
2021/05/27 07:41:21;;;;;;;11.48;8.32;;;;;;;25.97;46.48;94771.81;4916307;29;20043;-67
2021/05/27 07:43:47;;;;;;;12.38;8.57;;;;;;;25.92;46.63;94772.69;4895624;29;20036;-67
2021/05/27 07:46:12;;;;;;;10.43;7.75;;;;;;;25.91;46.31;94771.22;4897192;29;20051;-67
2021/05/27 07:48:38;;;;;;;11.02;8.05;;;;;;;25.89;46.88;94771.03;4912072;29;20047;-67
2021/05/27 07:51:05;;;;;;;11.85;8.02;;;;;;;25.89;47.54;94775.78;4912070;29;20092;-67
2021/05/27 07:53:30;;;;;;;9.45;7.38;;;;;;;25.89;47.15;94770.28;4926638;29;20031;-67
2021/05/27 07:55:56;;;;;;;10.80;7.55;;;;;;;25.74;46.98;94758.44;4930817;29;20039;-68
2021/05/27 07:58:21;;;;;;;11.73;7.95;;;;;;;25.81;47.36;94775.69;4931302;29;20031;-69
2021/05/27 08:00:47;;;;;;;11.70;7.22;;;;;;;25.85;47.07;94770.59;4918245;29;20044;-69
2021/05/27 08:03:12;;;;;;;13.30;7.85;;;;;;;25.87;46.66;94762.63;4935567;29;21048;-69
2021/05/27 08:05:38;;;;;;;10.38;6.70;;;;;;;25.86;46.78;94760.41;4929425;29;20031;-67
2021/05/27 08:08:03;;;;;;;8.85;6.95;;;;;;;25.87;47.28;94770.06;4934932;29;20810;-67
2021/05/27 08:10:29;;;;;;;9.23;7.03;;;;;;;25.83;47.14;94778.63;4926084;29;20082;-68
2021/05/27 08:12:55;;;;;;;9.40;6.43;;;;;;;25.85;46.89;94765.13;4904078;29;20035;-69
2021/05/27 08:15:20;;;;;;;8.98;6.28;;;;;;;25.90;46.87;94766.28;4930399;29;20035;-69
2021/05/27 08:17:46;;;;;;;7.43;5.90;;;;;;;25.89;46.51;94753.88;4934857;29;20514;-67
2021/05/27 08:20:12;;;;;;;10.38;5.97;;;;;;;25.89;46.99;94753.88;4934513;29;20038;-68
2021/05/27 08:22:37;;;;;;;8.70;6.00;;;;;;;25.90;46.72;94761.56;4934901;29;20511;-68
2021/05/27 08:25:04;;;;;;;8.18;5.35;;;;;;;25.89;46.97;94749.13;4933403;29;20040;-68
2021/05/27 08:27:30;;;;;;;9.63;5.82;;;;;;;25.89;45.98;94743.66;4934273;29;20063;-67
2021/05/27 08:29:56;;;;;;;7.45;5.25;;;;;;;25.89;45.72;94738.19;4948142;29;20427;-68
2021/05/27 08:32:21;;;;;;;7.20;5.00;;;;;;;25.92;45.44;94739.13;4953542;29;20115;-68
2021/05/27 08:34:47;;;;;;;7.05;4.70;;;;;;;25.91;44.63;94734.91;4953445;29;20419;-68
2021/05/27 08:37:12;;;;;;;6.28;4.45;;;;;;;25.90;45.10;94734.19;4935288;29;20035;-69
2021/05/27 08:39:37;;;;;;;5.45;4.30;;;;;;;25.90;45.31;94728.72;4934303;29;20452;-67
2021/05/27 08:42:03;;;;;;;6.38;4.70;;;;;;;25.91;44.82;94723.97;4933864;29;20028;-67
2021/05/27 08:44:28;;;;;;;7.57;4.38;;;;;;;25.90;44.75;94728.72;4917650;29;20035;-68
2021/05/27 08:46:54;;;;;;;7.03;4.60;;;;;;;25.91;44.77;94727.44;4901497;29;20035;-68
2021/05/27 08:49:19;;;;;;;6.82;4.63;;;;;;;25.89;44.61;94732.72;4920999;29;20040;-67
2021/05/27 08:51:45;;;;;;;6.40;4.72;;;;;;;25.89;45.29;94721.78;4915688;29;20428;-68
2021/05/27 08:54:11;;;;;;;8.30;4.80;;;;;;;25.93;45.00;94721.44;4918219;29;20028;-67
2021/05/27 08:56:36;;;;;;;7.45;4.18;;;;;;;25.95;44.13;94714.16;4916586;29;20987;-67
2021/05/27 08:59:02;;;;;;;7.55;4.95;;;;;;;25.93;44.81;94724.94;4900075;29;20127;-70
2021/05/27 09:01:28;;;;;;;6.50;4.32;;;;;;;25.91;45.36;94724.69;4923347;29;20023;-68
2021/05/27 09:03:54;;;;;;;8.63;4.93;;;;;;;25.97;45.53;94721.84;4885998;29;20432;-69
2021/05/27 09:06:19;;;;;;;8.20;5.00;;;;;;;25.97;44.68;94717.09;4932092;29;20087;-66
2021/05/27 09:08:45;;;;;;;6.32;5.10;;;;;;;25.98;45.42;94718.56;4935737;29;20427;-67
2021/05/27 09:11:12;;;;;;;5.68;4.50;;;;;;;26.01;45.26;94711.31;4935533;29;20032;-67
2021/05/27 09:13:49;;;;;;;5.65;4.80;;;;;;;26.03;45.17;94714.97;4921388;29;20086;-66
2021/05/27 09:16:15;;;;;;;6.22;4.63;;;;;;;26.02;45.77;94710.78;4915483;29;20443;-67
2021/05/27 09:18:41;;;;;;;8.38;5.38;;;;;;;26.06;45.80;94707.69;4932436;29;20043;-66
2021/05/27 09:21:11;;;;;;;7.45;4.80;;;;;;;26.08;45.55;94700.41;4933781;29;20433;-67
2021/05/27 09:23:46;;;;;;;;;;;;;;;26.09;45.83;94707.34;4952326;29;20031;-68
2021/05/27 09:26:13;;;;;;;5.43;4.70;;;;;;;26.08;45.71;94711.34;4952092;29;19922;-68
2021/05/27 09:28:39;;;;;;;7.65;5.18;;;;;;;26.10;45.94;94703.38;4933927;29;20493;-67
2021/05/27 09:31:06;;;;;;;7.43;4.75;;;;;;;26.13;46.65;94696.06;4930114;29;20039;-68
2021/05/27 09:33:33;;;;;;;7.72;5.40;;;;;;;26.12;46.60;94684.41;4932967;29;20027;-68
2021/05/27 09:36:01;;;;;;;10.25;5.30;;;;;;;26.13;46.70;94680.41;4932840;29;20039;-67
2021/05/27 09:38:28;;;;;;;8.90;6.40;;;;;;;26.04;46.82;94672.66;4932792;29;20499;-67
2021/05/27 09:40:53;;;;;;;8.55;5.38;;;;;;;26.13;46.85;94690.59;4942213;29;20042;-68
2021/05/27 09:43:23;;;;;;;10.73;5.63;;;;;;;26.12;46.25;94684.41;4934930;29;20028;-67
2021/05/27 09:46:07;;;;;;;10.30;5.85;;;;;;;26.13;46.26;94691.34;4897024;29;20038;-70
2021/05/27 09:48:34;;;;;;;9.30;5.43;;;;;;;26.10;46.56;94670.50;4926377;29;20559;-69
2021/05/27 09:51:00;;;;;;;8.23;5.88;;;;;;;26.12;46.86;94673.44;4908528;29;20376;-67
2021/05/27 09:53:26;;;;;;;8.73;5.85;;;;;;;26.12;47.07;94673.44;4918528;29;20028;-66
2021/05/27 09:55:53;;;;;;;8.35;5.80;;;;;;;26.05;47.01;94674.13;4935072;29;20023;-68
2021/05/27 09:58:18;;;;;;;7.43;5.55;;;;;;;26.18;46.81;94676.78;4907834;29;20408;-66
2021/05/27 10:00:44;;;;;;;6.80;6.07;;;;;;;26.19;47.06;94667.31;4909690;29;20027;-67
2021/05/27 10:03:26;;;;;;;9.55;6.03;;;;;;;26.26;46.89;94672.09;4926847;29;20048;-68
2021/05/27 10:05:52;;;;;;;9.55;5.60;;;;;;;26.31;46.99;94679.47;4927622;29;20028;-68
2021/05/27 10:08:19;;;;;;;6.38;4.95;;;;;;;26.39;46.59;94663.81;4909702;29;20036;-68
2021/05/27 10:10:44;;;;;;;7.10;5.07;;;;;;;26.48;46.70;94660.59;4908547;29;20431;-69
2021/05/27 10:13:10;;;;;;;8.27;5.30;;;;;;;26.59;46.32;94660.28;4925217;29;20024;-68
2021/05/27 10:15:36;;;;;;;8.98;5.20;;;;;;;26.70;45.77;94654.53;4931831;29;20103;-67
2021/05/27 10:18:05;;;;;;;7.50;4.72;;;;;;;26.78;45.57;94648.53;4926829;29;20055;-67
2021/05/27 10:20:32;;;;;;;6.57;4.72;;;;;;;26.91;45.43;94637.50;4931284;29;20019;-72
2021/05/27 10:22:58;;;;;;;6.47;4.97;;;;;;;27.03;45.04;94638.63;4924187;29;20035;-66
2021/05/27 10:25:25;;;;;;;7.00;4.63;;;;;;;27.13;45.05;94631.38;4931918;29;20019;-67
2021/05/27 10:27:51;;;;;;;8.40;4.38;;;;;;;27.12;44.40;94624.41;4907268;29;20492;-68
2021/05/27 10:30:18;;;;;;;8.18;4.90;;;;;;;27.33;44.36;94633.25;4913378;29;20439;-65
2021/05/27 10:32:50;;;;;;;6.13;3.95;;;;;;;27.25;43.41;94616.06;4924154;29;20055;-67
2021/05/27 10:35:19;;;;;;;5.95;4.03;;;;;;;27.52;42.61;94628.19;4904544;29;20034;-66
2021/05/27 10:37:45;;;;;;;7.15;3.97;;;;;;;27.55;41.98;94632.59;4908366;29;20044;-66
2021/05/27 10:40:17;;;;;;;6.50;3.83;;;;;;;27.63;41.88;94638.84;4930267;29;20752;-68
2021/05/27 10:42:58;;;;;;;9.20;3.95;;;;;;;27.69;41.43;94636.66;4926545;29;20040;-66
2021/05/27 10:45:27;;;;;;;6.13;3.72;;;;;;;27.78;41.37;94626.59;4944600;29;20027;-68
2021/05/27 10:48:24;;;;;;;7.65;4.35;;;;;;;27.84;40.90;94627.16;4931117;29;20028;-66
2021/05/27 10:51:09;;;;;;;6.05;3.60;;;;;;;27.94;41.11;94619.84;4914603;29;20081;-66
2021/05/27 10:53:36;;;;;;;6.93;3.97;;;;;;;27.99;40.52;94621.69;4925815;29;20044;-67
2021/05/27 10:56:02;;;;;;;8.45;4.43;;;;;;;28.08;40.34;94629.38;4946411;29;20113;-66
2021/05/27 10:58:46;;;;;;;6.00;3.78;;;;;;;28.16;40.12;94635.63;4925680;29;20040;-66
2021/05/27 11:01:17;;;;;;;7.75;4.20;;;;;;;28.19;40.18;94634.53;4946923;29;20035;-66
2021/05/27 11:03:50;;;;;;;7.30;4.10;;;;;;;28.30;40.41;94634.16;4918554;29;20064;-67
2021/05/27 11:06:40;;;;;;;7.88;3.95;;;;;;;28.22;40.68;94630.69;4947074;29;20063;-67
2021/05/27 11:09:24;;;;;;;8.57;4.00;;;;;;;28.37;41.11;94627.91;4922919;29;20113;-68
2021/05/27 11:11:55;;;;;;;8.15;4.00;;;;;;;28.38;41.08;94634.88;4931459;29;20070;-66
2021/05/27 11:14:34;;;;;;;5.32;3.67;;;;;;;28.39;40.92;94614.38;4912012;29;20038;-67
2021/05/27 11:17:12;;;;;;;7.75;4.13;;;;;;;28.49;40.85;94623.50;4913217;29;20066;-67
2021/05/27 11:22:49;;;;;;;5.95;4.00;;;;;;;28.69;40.74;94597.84;4938214;29;20539;-69
2021/05/27 11:25:16;;;;;;;6.13;3.65;;;;;;;28.73;40.01;94605.16;4936093;29;20024;-67
2021/05/27 11:27:54;;;;;;;6.82;3.78;;;;;;;28.68;40.01;94601.88;4932532;29;20043;-70
2021/05/27 11:30:23;;;;;;;4.50;3.15;;;;;;;28.79;39.61;94602.22;4920645;29;20027;-68
2021/05/27 11:33:04;;;;;;;7.15;3.50;;;;;;;28.80;38.13;94598.91;4924971;29;20039;-67
2021/05/27 11:35:36;;;;;;;6.88;3.22;;;;;;;28.83;37.45;94611.53;4926044;29;20086;-67
2021/05/27 11:38:03;;;;;;;7.10;3.10;;;;;;;28.91;37.45;94595.75;4931784;29;20028;-67